Time;durP1;ratioP1;P1;durP2;ratioP2;P2;SDS_P1;SDS_P2;PMS_P1;PMS_P2;Temp;Humidity;BMP_temperature;BMP_pressure;BME280_temperature;BME280_humidity;BME280_pressure;Samples;Min_cycle;Max_cycle;Signal;HPM_P1;HPM_P2
2022/05/14 00:01:58;;;;;;;10.70;3.03;;;;;;;-146.64;100.00;41434.06;5088659;28;20048;-70
2022/05/14 00:04:23;;;;;;;13.67;2.70;;;;;;;-146.64;100.00;41069.59;5085936;28;20024;-70
2022/05/14 00:06:49;;;;;;;12.17;2.43;;;;;;;-146.64;100.00;41116.69;5071584;28;20127;-70
2022/05/14 00:09:15;;;;;;;10.32;2.22;;;;;;;-146.64;100.00;40815.72;5067584;28;20052;-70
2022/05/14 00:14:24;;;;;;;17.75;2.50;;;;;;;-146.64;100.00;40873.03;5088725;28;20082;-70
2022/05/14 00:16:51;;;;;;;10.67;2.27;;;;;;;-146.64;100.00;40778.88;5090782;28;20028;-70
2022/05/14 00:19:17;;;;;;;10.63;2.38;;;;;;;-146.64;100.00;41069.59;5086978;28;20105;-70
2022/05/14 00:21:42;;;;;;;12.73;2.60;;;;;;;-146.64;100.00;41270.25;5070111;28;20467;-69
2022/05/14 00:24:08;;;;;;;14.80;2.92;;;;;;;-146.64;100.00;41364.44;5086889;28;20024;-70
2022/05/14 00:26:38;;;;;;;17.23;2.00;;;;;;;-146.64;100.00;42056.63;5091184;28;20069;-70
2022/05/14 00:29:07;;;;;;;14.52;3.50;;;;;;;-146.64;100.00;42394.56;5068582;28;20639;-70
2022/05/14 00:31:32;;;;;;;10.10;2.80;;;;;;;-146.64;100.00;43039.81;5090064;28;20044;-70
2022/05/14 00:33:58;;;;;;;10.73;2.60;;;;;;;-146.64;100.00;44601.09;5089125;28;20612;-70
2022/05/14 00:36:23;;;;;;;18.20;3.53;;;;;;;-146.64;100.00;45701.75;5092055;28;20027;-70
2022/05/14 00:38:49;;;;;;;12.00;2.97;;;;;;;-146.64;100.00;46712.50;5070383;28;20112;-70
2022/05/14 00:41:15;;;;;;;14.27;2.77;;;;;;;-146.64;100.00;48098.84;5072079;28;20035;-70
2022/05/14 00:43:50;;;;;;;17.98;3.13;;;;;;;-146.64;100.00;48449.59;5071758;28;20032;-70
2022/05/14 00:46:22;;;;;;;15.75;3.15;;;;;;;-146.64;100.00;49186.09;5088565;28;20406;-70
2022/05/14 00:48:50;;;;;;;13.05;2.58;;;;;;;-146.64;100.00;51070.03;5070465;28;20127;-70
2022/05/14 00:51:20;;;;;;;15.40;2.72;;;;;;;-146.64;100.00;52227.94;5072364;28;20644;-70
2022/05/14 00:53:49;;;;;;;9.05;2.72;;;;;;;-146.64;100.00;53990.06;5070744;28;20059;-70
2022/05/14 00:56:17;;;;;;;13.50;2.63;;;;;;;-146.64;100.00;55041.97;5071257;28;20035;-70
2022/05/14 00:58:46;;;;;;;15.50;2.95;;;;;;;-146.64;100.00;58462.56;5070655;28;20040;-70
2022/05/14 01:01:13;;;;;;;17.25;3.15;;;;;;;-146.64;100.00;57672.94;5071667;28;20043;-70
2022/05/14 01:03:38;;;;;;;14.43;3.20;;;;;;;-146.64;100.00;61095.81;5070070;28;20036;-70
2022/05/14 01:06:05;;;;;;;15.30;4.30;;;;;;;-146.64;100.00;62149.59;5083601;28;20035;-70
2022/05/14 01:08:30;;;;;;;;;;;;;;;-146.64;100.00;64521.66;5072270;28;20035;-70
2022/05/14 01:10:56;;;;;;;8.75;2.70;;;;;;;-146.64;100.00;65312.66;5088028;28;20309;-70
2022/05/14 01:13:22;;;;;;;11.55;2.60;;;;;;;-146.64;100.00;68742.09;5069379;28;20056;-70
2022/05/14 01:15:49;;;;;;;12.17;3.00;;;;;;;-146.64;100.00;70061.91;5089567;28;20450;-69
2022/05/14 01:18:19;;;;;;;19.20;2.67;;;;;;;-146.64;100.00;70325.94;5069788;28;20493;-70
2022/05/14 01:20:54;;;;;;;20.92;4.00;;;;;;;-146.64;100.00;72702.84;5086690;28;20035;-70
2022/05/14 01:23:29;;;;;;;12.60;3.30;;;;;;;-146.64;100.00;74023.97;5087349;28;20036;-71
2022/05/14 01:26:28;;;;;;;14.50;3.55;;;;;;;-146.64;100.00;75081.16;5089172;28;20379;-69
2022/05/14 01:29:05;;;;;;;11.05;2.90;;;;;;;-146.64;100.00;78254.47;5084920;28;20035;-71
2022/05/14 01:31:31;;;;;;;;;;;;;;;-146.64;100.00;79048.19;5088162;28;20059;-70
2022/05/14 01:34:01;;;;;;;6.78;2.65;;;;;;;-146.64;100.00;78783.59;5085264;28;19927;-70
2022/05/14 01:36:27;;;;;;;13.23;3.33;;;;;;;-146.64;100.00;82754.28;5088064;28;20038;-70
2022/05/14 01:38:55;;;;;;;19.17;3.70;;;;;;;-146.64;100.00;83548.88;5088284;28;20115;-70
2022/05/14 01:41:20;;;;;;;16.48;4.38;;;;;;;-146.64;100.00;84873.56;5076802;28;20039;-70
2022/05/14 01:43:46;;;;;;;13.47;3.40;;;;;;;-146.64;100.00;85933.66;5070224;28;20522;-70
2022/05/14 01:46:11;;;;;;;15.37;4.23;;;;;;;-146.64;100.00;88319.81;5086097;28;20047;-71
2022/05/14 01:48:36;;;;;;;13.18;3.92;;;;;;;-146.64;100.00;88319.81;5071625;28;20035;-69
2022/05/14 01:51:02;;;;;;;16.23;3.88;;;;;;;-146.64;100.00;88585.03;5087276;28;20020;-70
2022/05/14 01:53:27;;;;;;;18.87;4.43;;;;;;;-146.64;100.00;90972.78;5070621;28;20123;-70
2022/05/14 01:55:52;;;;;;;13.20;4.07;;;;;;;-146.64;100.00;92830.91;5086641;28;20068;-70
2022/05/14 01:58:39;;;;;;;17.03;4.70;;;;;;;-146.64;100.00;92830.91;5088448;28;20039;-70
2022/05/14 02:01:15;;;;;;;20.50;4.13;;;;;;;-146.64;100.00;95752.53;5086791;28;20131;-70
2022/05/14 02:03:46;;;;;;;20.40;4.72;;;;;;;-146.64;100.00;95486.84;5059633;28;20023;-71
2022/05/14 02:06:12;;;;;;;15.05;4.18;;;;;;;-146.64;100.00;97347.03;5087021;28;20073;-71
2022/05/14 02:08:37;;;;;;;22.45;4.68;;;;;;;-146.64;100.00;98942.19;5050605;28;20572;-70
2022/05/14 02:11:03;;;;;;;23.42;4.30;;;;;;;-146.64;100.00;100271.94;5084682;28;20061;-70
2022/05/14 02:13:29;;;;;;;19.10;4.15;;;;;;;-146.64;100.00;100005.94;5081110;28;20061;-70
2022/05/14 02:15:55;;;;;;;24.60;4.73;;;;;;;-146.64;100.00;101070.00;5068417;28;20020;-70
2022/05/14 02:18:20;;;;;;;19.33;4.87;;;;;;;-146.64;100.00;102400.44;5085592;28;20036;-70
2022/05/14 02:20:46;;;;;;;24.57;4.87;;;;;;;-146.64;100.00;102666.59;5086389;28;20036;-70
2022/05/14 02:23:14;;;;;;;19.60;4.83;;;;;;;-146.64;100.00;103465.13;5088673;28;20054;-70
2022/05/14 02:25:41;;;;;;;18.30;5.30;;;;;;;-146.64;100.00;103731.34;5086430;28;20040;-70
2022/05/14 02:28:06;;;;;;;17.75;4.95;;;;;;;-146.64;100.00;105062.66;5086551;28;20479;-70
2022/05/14 02:30:31;;;;;;;20.05;5.45;;;;;;;-146.64;100.00;105595.31;5088647;28;20050;-70
2022/05/14 02:32:57;;;;;;;25.50;5.90;;;;;;;-146.64;100.00;105595.31;5086799;28;20038;-70
2022/05/14 02:35:22;;;;;;;17.43;5.73;;;;;;;-146.64;100.00;105861.69;5068465;28;20036;-70
2022/05/14 02:37:48;;;;;;;20.73;5.38;;;;;;;-146.64;100.00;105861.69;5088796;28;20379;-70
2022/05/14 02:40:13;;;;;;;16.70;4.57;;;;;;;-146.64;100.00;106394.44;5085911;28;20043;-70
2022/05/14 02:42:39;;;;;;;16.77;4.20;;;;;;;-146.64;100.00;106660.84;5086292;28;20036;-70
2022/05/14 02:45:05;;;;;;;16.88;4.38;;;;;;;-146.64;100.00;106660.84;5088747;28;20537;-70
2022/05/14 02:47:31;;;;;;;14.85;4.60;;;;;;;-146.64;100.00;107993.13;5089826;28;20485;-70
2022/05/14 02:49:56;;;;;;;20.80;5.37;;;;;;;-146.64;100.00;108792.72;5066693;28;20028;-70
2022/05/14 02:52:23;;;;;;;13.73;4.70;;;;;;;-146.64;100.00;109325.84;5088124;28;20185;-70
2022/05/14 02:54:49;;;;;;;20.98;5.60;;;;;;;-146.64;100.00;108526.16;5088865;28;20028;-70
2022/05/14 02:57:14;;;;;;;15.73;5.03;;;;;;;-146.64;100.00;108792.72;5067312;28;20036;-69
2022/05/14 02:59:40;;;;;;;21.58;5.50;;;;;;;-146.64;100.00;110659.00;5087759;28;20039;-70
2022/05/14 03:02:06;;;;;;;21.50;5.40;;;;;;;-146.64;100.00;109592.44;5088012;28;20066;-70
2022/05/14 03:04:36;;;;;;;17.03;5.77;;;;;;;-146.64;100.00;110659.00;5066507;28;20028;-69
2022/05/14 03:07:03;;;;;;;20.08;6.05;;;;;;;-146.64;100.00;111725.84;5070864;28;20028;-69
2022/05/14 03:09:28;;;;;;;27.08;5.40;;;;;;;-146.64;100.00;111459.13;5068339;28;20063;-70
2022/05/14 03:11:53;;;;;;;15.67;5.67;;;;;;;-146.64;100.00;111725.84;5069945;28;20139;-70
2022/05/14 03:14:19;;;;;;;25.60;6.25;;;;;;;-146.64;100.00;112526.16;5085972;28;20035;-70
2022/05/14 03:16:44;;;;;;;22.38;6.13;;;;;;;-146.64;100.00;112526.16;5053514;28;20020;-70
2022/05/14 03:19:11;;;;;;;24.35;6.20;;;;;;;-146.64;100.00;112792.97;5085912;28;20077;-70
2022/05/14 03:21:37;;;;;;;22.17;6.43;;;;;;;-146.64;100.00;113326.63;5067599;28;20123;-69
2022/05/14 03:24:02;;;;;;;32.97;6.53;;;;;;;-146.64;100.00;114127.28;5054799;28;20086;-70
2022/05/14 03:26:28;;;;;;;20.90;6.40;;;;;;;-146.64;100.00;113860.38;5087978;28;20043;-70
2022/05/14 03:28:53;;;;;;;16.70;6.63;;;;;;;-146.64;100.00;114127.28;5088464;28;20420;-69
2022/05/14 03:31:19;;;;;;;27.80;8.67;;;;;;;-146.64;100.00;114394.19;5082667;28;20475;-70
2022/05/14 03:33:44;;;;;;;24.38;8.15;;;;;;;-146.64;100.00;115729.00;5087368;28;20036;-69
2022/05/14 03:36:10;;;;;;;20.73;8.20;;;;;;;-146.64;100.00;115462.00;5087160;28;20028;-71
2022/05/14 03:38:35;;;;;;;20.50;7.60;;;;;;;-146.64;100.00;115195.03;5052375;28;20035;-70
2022/05/14 03:41:01;;;;;;;26.23;7.87;;;;;;;-146.64;100.00;114928.06;5087237;28;20035;-70
2022/05/14 03:43:26;;;;;;;28.83;8.18;;;;;;;-146.64;100.00;115195.03;5089187;28;20107;-70
2022/05/14 03:45:52;;;;;;;24.33;8.40;;;;;;;-146.64;100.00;116263.06;5071012;28;20135;-71
2022/05/14 03:48:17;;;;;;;26.13;8.00;;;;;;;-146.64;100.00;116530.09;5092717;28;20111;-70
2022/05/14 03:50:42;;;;;;;21.87;7.63;;;;;;;-146.64;100.00;116797.16;5088723;28;20027;-70
2022/05/14 03:53:08;;;;;;;25.63;9.63;;;;;;;-146.64;100.00;117064.25;5091109;28;20476;-70
2022/05/14 03:55:33;;;;;;;30.03;8.80;;;;;;;-146.64;100.00;117331.34;5087435;28;20123;-69
2022/05/14 03:57:59;;;;;;;29.23;9.07;;;;;;;-146.64;100.00;117331.34;5091628;28;20024;-69
2022/05/14 04:00:24;;;;;;;24.23;9.80;;;;;;;-146.64;100.00;117064.25;5087544;28;20090;-70
2022/05/14 04:02:49;;;;;;;24.93;9.60;;;;;;;-146.64;100.00;117331.34;5089792;28;20090;-71
2022/05/14 04:05:15;;;;;;;30.70;10.27;;;;;;;-146.64;100.00;117865.63;5085375;28;20046;-71
2022/05/14 04:07:42;;;;;;;29.23;11.88;;;;;;;-146.64;100.00;117598.47;5073187;28;20028;-70
2022/05/14 04:10:08;;;;;;;26.73;9.75;;;;;;;-146.64;100.00;117598.47;5084333;28;20105;-70
2022/05/14 04:12:34;;;;;;;31.02;10.63;;;;;;;-146.64;100.00;117865.63;5070718;28;20387;-71
2022/05/14 04:14:59;;;;;;;35.30;11.47;;;;;;;-146.64;100.00;118132.78;5088920;28;20107;-70
2022/05/14 04:17:25;;;;;;;35.03;13.80;;;;;;;-146.64;100.00;117865.63;5072983;28;20032;-70
2022/05/14 04:19:50;;;;;;;36.07;11.33;;;;;;;-146.64;100.00;117865.63;5086363;28;20053;-70
2022/05/14 04:22:16;;;;;;;27.00;11.43;;;;;;;-146.64;100.00;118132.78;5088910;28;20040;-70
2022/05/14 04:24:41;;;;;;;22.30;11.18;;;;;;;-146.64;100.00;118132.78;5089602;28;20535;-70
2022/05/14 04:27:06;;;;;;;31.97;12.20;;;;;;;-146.64;100.00;117865.63;5088604;28;20032;-70
2022/05/14 04:29:31;;;;;;;37.42;11.98;;;;;;;-146.64;100.00;117865.63;5088756;28;20024;-69
2022/05/14 04:31:57;;;;;;;33.17;12.30;;;;;;;-146.64;100.00;117598.47;5088791;28;20027;-70
2022/05/14 04:34:22;;;;;;;36.00;12.70;;;;;;;-146.64;100.00;117865.63;5089429;28;20383;-70
2022/05/14 04:36:47;;;;;;;29.97;12.67;;;;;;;-146.64;100.00;117865.63;5071655;28;20062;-70
2022/05/14 04:39:13;;;;;;;29.53;12.00;;;;;;;-146.64;100.00;117865.63;5088674;28;20383;-70
2022/05/14 04:41:38;;;;;;;27.97;12.20;;;;;;;-146.64;100.00;117331.34;5088480;28;20115;-70
2022/05/14 04:44:04;;;;;;;47.80;13.43;;;;;;;-146.64;100.00;117064.25;5087939;28;20024;-70
2022/05/14 04:46:30;;;;;;;37.17;12.77;;;;;;;-146.64;100.00;116797.16;5088432;28;20039;-70
2022/05/14 04:48:56;;;;;;;29.53;12.30;;;;;;;-146.64;100.00;116530.09;5072002;28;20119;-70
2022/05/14 04:51:21;;;;;;;33.95;12.32;;;;;;;-146.64;100.00;115996.03;5070374;28;20031;-70
2022/05/14 04:53:47;;;;;;;38.83;13.83;;;;;;;-146.64;100.00;115729.00;5086796;28;20032;-70
2022/05/14 04:56:12;;;;;;;29.17;12.30;;;;;;;-146.64;100.00;115195.03;5087420;28;20046;-70
2022/05/14 04:58:37;;;;;;;34.77;13.37;;;;;;;-146.64;100.00;114394.19;5088312;28;20059;-70
2022/05/14 05:01:03;;;;;;;31.17;13.07;;;;;;;-146.64;100.00;113860.38;5083106;28;20108;-69
2022/05/14 05:03:28;;;;;;;33.27;12.43;;;;;;;-146.64;100.00;113059.81;5069796;28;20032;-70
2022/05/14 05:05:58;;;;;;;35.30;12.67;;;;;;;-146.64;100.00;112526.16;5088147;28;20444;-69
2022/05/14 05:08:25;;;;;;;27.73;12.98;;;;;;;-146.64;100.00;111725.84;5089139;28;20024;-70
2022/05/14 05:10:51;;;;;;;30.20;12.82;;;;;;;-146.64;100.00;110925.69;5085966;28;20035;-70
2022/05/14 05:13:19;;;;;;;33.83;13.70;;;;;;;-146.64;100.00;110125.69;5088093;28;20040;-70
2022/05/14 05:15:45;;;;;;;37.25;13.77;;;;;;;-146.64;100.00;109325.84;5070153;28;20024;-70
2022/05/14 05:18:11;;;;;;;38.23;12.90;;;;;;;-146.64;100.00;108526.16;5070054;28;20617;-70
2022/05/14 05:20:39;;;;;;;32.30;12.95;;;;;;;-146.64;100.00;107193.69;5084155;28;20032;-70
2022/05/14 05:23:05;;;;;;;34.90;12.30;;;;;;;-146.64;100.00;107726.63;5090172;28;20136;-69
2022/05/14 05:25:31;;;;;;;37.72;13.20;;;;;;;-146.64;100.00;106660.84;5068022;28;20028;-69
2022/05/14 05:27:56;;;;;;;44.47;12.27;;;;;;;-146.64;100.00;101868.22;5089378;28;20498;-70
2022/05/14 05:30:21;;;;;;;41.97;13.73;;;;;;;-146.64;100.00;101336.06;5085335;28;20738;-69
2022/05/14 05:32:47;;;;;;;29.90;12.63;;;;;;;-146.64;100.00;102932.75;5070181;28;20704;-70
2022/05/14 05:35:12;;;;;;;37.60;12.13;;;;;;;-146.64;100.00;102134.31;5081266;28;20046;-70
2022/05/14 05:37:37;;;;;;;35.87;12.53;;;;;;;-146.64;100.00;102134.31;5086346;28;20479;-71
2022/05/14 05:40:04;;;;;;;37.03;12.67;;;;;;;-146.64;100.00;101868.22;5083972;28;20325;-70
2022/05/14 05:42:29;;;;;;;32.33;12.40;;;;;;;-146.64;100.00;101868.22;5068988;28;20495;-70
2022/05/14 05:44:55;;;;;;;27.17;13.67;;;;;;;-146.64;100.00;100005.94;5086825;28;20280;-70
2022/05/14 05:47:21;;;;;;;42.10;13.13;;;;;;;-146.64;100.00;99208.09;5086236;28;20032;-70
2022/05/14 05:49:47;;;;;;;37.28;12.88;;;;;;;-146.64;100.00;96549.72;5068136;28;20039;-69
2022/05/14 05:52:12;;;;;;;32.13;11.57;;;;;;;-146.64;100.00;90442.06;5070309;28;20494;-70
2022/05/14 05:57:31;;;;;;;31.38;11.45;;;;;;;-146.64;100.00;46437.75;5084204;28;20062;-69
2022/05/14 05:59:56;;;;;;;27.65;10.32;;;;;;;-146.64;100.00;38889.59;5082673;28;20040;-70
2022/05/14 06:02:21;;;;;;;38.10;10.73;;;;;;;-146.64;100.00;38457.84;5080873;28;20109;-70
2022/05/14 06:04:47;;;;;;;33.47;11.30;;;;;;;-146.64;100.00;38355.53;5082812;28;20470;-70
2022/05/14 06:07:12;;;;;;;31.70;10.20;;;;;;;-146.64;100.00;38232.78;5085176;28;20345;-70
2022/05/14 06:09:38;;;;;;;23.43;9.33;;;;;;;-146.64;100.00;38183.66;5063809;28;20471;-70
2022/05/14 06:12:04;;;;;;;32.78;10.10;;;;;;;-146.64;100.00;38271.66;5068213;28;20024;-70
2022/05/14 06:14:29;;;;;;;26.10;9.57;;;;;;;-146.64;100.00;38195.94;5081770;28;20032;-70
2022/05/14 06:16:54;;;;;;;25.83;9.70;;;;;;;-146.64;100.00;38138.66;5080181;28;20037;-70
2022/05/14 06:19:20;;;;;;;22.93;8.53;;;;;;;-146.64;100.00;38065.00;5063633;28;20041;-70
2022/05/14 06:21:45;;;;;;;26.40;8.13;;;;;;;-146.64;100.00;38122.28;5052661;28;20040;-70
2022/05/14 06:24:11;;;;;;;22.93;9.20;;;;;;;-146.64;100.00;37954.53;5088279;28;20058;-70
2022/05/14 06:26:37;;;;;;;26.90;9.00;;;;;;;-146.64;100.00;37985.22;5086071;28;20032;-70
2022/05/14 06:29:03;;;;;;;23.05;8.25;;;;;;;-146.64;100.00;37979.06;5085551;28;20067;-70
2022/05/14 06:31:29;;;;;;;23.23;8.10;;;;;;;-146.64;100.00;37921.78;5085959;28;20105;-70
2022/05/14 06:33:54;;;;;;;23.37;8.77;;;;;;;-146.64;100.00;37893.16;5084575;28;20062;-69
2022/05/14 06:36:20;;;;;;;28.50;8.27;;;;;;;-146.64;100.00;37897.25;5083605;28;20090;-70
2022/05/14 06:38:45;;;;;;;26.33;7.93;;;;;;;-146.64;100.00;37774.50;5079265;28;20066;-70
2022/05/14 06:41:12;;;;;;;29.20;8.50;;;;;;;-146.64;100.00;37735.63;5064433;28;20039;-69
2022/05/14 06:43:37;;;;;;;30.75;8.15;;;;;;;-146.64;100.00;37737.66;5065684;28;20024;-70
2022/05/14 06:46:03;;;;;;;27.67;9.60;;;;;;;-146.64;100.00;37727.44;5084336;28;20065;-70
2022/05/14 06:48:28;;;;;;;24.45;8.23;;;;;;;-146.64;100.00;37749.94;5084170;28;20395;-70
2022/05/14 06:50:54;;;;;;;21.13;8.63;;;;;;;-146.64;100.00;37631.28;5065911;28;20127;-70
2022/05/14 06:53:20;;;;;;;21.60;8.37;;;;;;;-146.64;100.00;37653.78;5080361;28;20101;-69
2022/05/14 06:55:48;;;;;;;28.05;8.88;;;;;;;-146.64;100.00;37582.19;5086433;28;20388;-70
2022/05/14 06:58:17;;;;;;;25.77;8.10;;;;;;;-146.64;100.00;37643.56;5065853;28;20039;-70
2022/05/14 07:00:43;;;;;;;27.77;8.50;;;;;;;-146.64;100.00;37672.19;5064186;28;20028;-70
2022/05/14 07:08:37;;;;;;;23.15;7.15;;;;;;;-146.64;100.00;37484.00;5081475;28;20106;-70
2022/05/14 07:11:03;;;;;;;27.33;8.40;;;;;;;-146.64;100.00;37651.75;5077690;28;20032;-70
2022/05/14 07:13:28;;;;;;;33.15;8.55;;;;;;;-146.64;100.00;37516.72;5084479;28;20035;-70
2022/05/14 07:15:54;;;;;;;24.53;7.60;;;;;;;-146.64;100.00;37596.50;5083363;28;20211;-70
2022/05/14 07:18:19;;;;;;;26.20;7.97;;;;;;;-146.64;100.00;37547.41;5087780;28;20043;-70
2022/05/14 07:20:44;;;;;;;24.73;7.23;;;;;;;-146.64;100.00;37494.22;5080854;28;20036;-70
2022/05/14 07:23:09;;;;;;;22.80;7.60;;;;;;;-146.64;100.00;37549.47;5087460;28;20071;-70
2022/05/14 07:25:35;;;;;;;26.10;8.17;;;;;;;-146.64;100.00;37524.91;5084648;28;20441;-70
2022/05/14 07:28:00;;;;;;;38.50;8.77;;;;;;;-146.64;100.00;37516.72;5088885;28;20391;-70
2022/05/14 07:30:26;;;;;;;31.37;8.43;;;;;;;-146.64;100.00;37353.06;5081183;28;20032;-70
2022/05/14 07:32:51;;;;;;;30.00;7.57;;;;;;;-146.64;100.00;37406.25;5081066;28;20039;-70
2022/05/14 07:35:17;;;;;;;30.60;8.47;;;;;;;-146.64;100.00;37414.44;5085988;28;20081;-70
2022/05/14 07:37:48;;;;;;;30.27;8.30;;;;;;;-146.64;100.00;37361.25;5067739;28;20157;-70
2022/05/14 07:40:20;;;;;;;29.00;8.15;;;;;;;-146.64;100.00;37479.91;5060811;28;20039;-70
2022/05/14 07:43:09;;;;;;;27.42;7.55;;;;;;;-146.64;100.00;37426.72;5085566;28;20027;-69
2022/05/14 07:45:41;;;;;;;25.40;6.80;;;;;;;-146.64;100.00;37539.22;5079725;28;20087;-70
2022/05/14 07:48:09;;;;;;;30.55;8.82;;;;;;;-146.64;100.00;37537.19;5088781;28;20031;-70
2022/05/14 07:50:35;;;;;;;25.67;7.15;;;;;;;-146.64;100.00;37510.59;5085798;28;20372;-69
2022/05/14 07:53:01;;;;;;;28.87;6.80;;;;;;;-146.64;100.00;37590.38;5086129;28;20043;-70
2022/05/14 07:55:26;;;;;;;27.05;7.43;;;;;;;-146.64;100.00;37610.81;5080436;28;20550;-71
2022/05/14 07:57:52;;;;;;;29.90;7.03;;;;;;;-146.64;100.00;37555.59;5085034;28;20039;-70
2022/05/14 08:00:17;;;;;;;24.63;7.10;;;;;;;-146.64;100.00;37580.13;5085025;28;20211;-69
2022/05/14 08:02:44;;;;;;;21.97;6.93;;;;;;;-146.64;100.00;37604.69;5066942;28;20025;-70
2022/05/14 08:05:10;;;;;;;30.92;7.45;;;;;;;-146.64;100.00;37549.47;5081131;28;20389;-70
2022/05/14 08:07:36;;;;;;;22.08;7.47;;;;;;;-146.64;100.00;37619.00;5083415;28;20039;-70
2022/05/14 08:10:03;;;;;;;25.92;7.63;;;;;;;-146.64;100.00;37596.50;5064872;28;22231;-70
2022/05/14 08:12:41;;;;;;;24.98;7.18;;;;;;;-146.64;100.00;37612.88;5082097;28;20107;-70
2022/05/14 08:15:08;;;;;;;31.63;6.88;;;;;;;-146.64;100.00;37659.94;5061695;28;20028;-70
2022/05/14 08:17:33;;;;;;;21.95;6.78;;;;;;;-146.64;100.00;37668.09;5090139;28;20047;-70
2022/05/14 08:19:58;;;;;;;31.13;7.70;;;;;;;-146.64;100.00;37651.75;5087083;28;20398;-71
2022/05/14 08:25:08;;;;;;;24.17;7.03;;;;;;;-146.64;100.00;37604.69;5074685;28;20090;-69
2022/05/14 08:27:44;;;;;;;25.98;6.90;;;;;;;-146.64;100.00;37590.38;5090082;28;20028;-70
2022/05/14 08:30:17;;;;;;;23.90;5.60;;;;;;;-146.64;100.00;37565.81;5088445;28;20032;-69
2022/05/14 08:32:42;;;;;;;17.35;5.72;;;;;;;-146.64;100.00;37488.09;5066806;28;20028;-69
2022/05/14 08:35:09;;;;;;;24.13;5.60;;;;;;;-146.64;100.00;37406.25;5088449;28;20035;-69
2022/05/14 08:37:34;;;;;;;;;;;;;;;-146.64;100.00;37565.81;5090324;28;20066;-69
2022/05/14 08:40:05;;;;;;;21.80;5.45;;;;;;;-146.64;99.50;37465.59;5071112;28;20371;-69
2022/05/14 08:42:33;;;;;;;19.25;5.15;;;;;;;-146.64;96.72;37512.63;5091833;28;20039;-69
2022/05/14 08:44:58;;;;;;;28.67;6.90;;;;;;;-146.64;96.17;37471.72;5088890;28;20036;-69
2022/05/14 08:47:40;;;;;;;28.87;5.97;;;;;;;-146.64;97.19;37439.00;5090681;28;20028;-70
2022/05/14 08:50:07;;;;;;;27.45;5.90;;;;;;;-146.64;95.44;37389.91;5088269;28;20083;-70
2022/05/14 08:52:33;;;;;;;22.20;6.25;;;;;;;-146.64;93.62;37373.53;5090257;28;20055;-69
2022/05/14 08:55:04;;;;;;;22.58;5.28;;;;;;;-146.64;87.34;37484.00;5089428;28;20036;-69
2022/05/14 08:57:49;;;;;;;23.67;5.20;;;;;;;-146.64;89.89;37385.81;5090704;28;20036;-69
2022/05/14 09:00:16;;;;;;;18.75;5.22;;;;;;;-146.64;86.14;37451.25;5068335;28;20020;-70
2022/05/14 09:02:48;;;;;;;22.33;5.80;;;;;;;-146.64;90.86;37426.72;5089969;28;20269;-69
2022/05/14 09:05:27;;;;;;;24.35;4.65;;;;;;;-146.64;86.90;37340.81;5069698;28;20024;-70
2022/05/14 09:07:52;;;;;;;20.98;4.68;;;;;;;-146.64;76.49;37344.91;5072693;28;20030;-70
2022/05/14 09:10:22;;;;;;;14.43;3.77;;;;;;;-146.64;67.99;37363.31;5088187;28;20043;-70
2022/05/14 09:13:00;;;;;;;22.15;4.40;;;;;;;-146.64;62.11;37181.25;5088588;28;20031;-69
2022/05/14 09:15:28;;;;;;;20.67;4.60;;;;;;;-146.64;66.88;37283.53;5052613;28;20039;-70
2022/05/14 09:18:05;;;;;;;16.67;4.68;;;;;;;-146.64;71.52;37191.47;5089411;28;20467;-70
2022/05/14 09:20:39;;;;;;;22.08;5.78;;;;;;;-146.64;69.35;37252.84;5082560;28;20039;-69
2022/05/14 09:23:05;;;;;;;19.23;5.00;;;;;;;-146.64;67.77;37254.88;5090768;28;20036;-69
2022/05/14 09:25:34;;;;;;;30.20;6.10;;;;;;;-146.64;68.49;37230.34;5070880;28;20375;-69
2022/05/14 09:28:02;;;;;;;22.38;4.88;;;;;;;-146.64;70.99;37181.25;5071496;28;20059;-69
2022/05/14 09:30:31;;;;;;;27.15;5.68;;;;;;;-146.64;69.52;37021.72;5088297;28;20047;-68
2022/05/14 09:32:57;;;;;;;18.77;4.90;;;;;;;-146.64;65.91;36984.88;5070920;28;20088;-70
2022/05/14 09:35:25;;;;;;;20.15;5.32;;;;;;;-146.64;71.25;37275.34;5087357;28;20071;-71
2022/05/14 09:37:55;;;;;;;25.63;4.88;;;;;;;-146.64;74.18;37467.63;5090526;28;20055;-70
2022/05/14 09:40:24;;;;;;;25.05;4.75;;;;;;;-146.64;76.89;37557.63;5089837;28;20036;-71
2022/05/14 09:43:22;;;;;;;24.77;5.30;;;;;;;-146.64;78.24;37647.66;5086968;28;20046;-71
2022/05/14 09:46:00;;;;;;;28.92;5.70;;;;;;;-146.64;77.09;37529.00;5051771;28;20028;-70
2022/05/14 09:48:53;;;;;;;19.20;4.18;;;;;;;-146.64;74.99;37234.44;5088445;28;20044;-70
2022/05/14 09:51:35;;;;;;;18.85;4.63;;;;;;;-146.64;69.23;37025.78;5085416;28;20081;-70
2022/05/14 09:54:34;;;;;;;16.70;4.20;;;;;;;-146.64;63.11;37087.16;5089339;28;20051;-69
2022/05/14 09:57:09;;;;;;;19.85;4.57;;;;;;;-146.64;66.11;37107.63;5088549;28;20035;-69
2022/05/14 10:00:05;;;;;;;19.50;4.00;;;;;;;-146.64;70.25;37314.22;5087170;28;20111;-70
2022/05/14 10:02:52;;;;;;;19.60;5.03;;;;;;;-146.64;67.67;37336.72;5086067;28;20023;-70
2022/05/14 10:05:36;;;;;;;18.45;4.47;;;;;;;-146.64;64.11;37148.53;5080079;28;20111;-70
2022/05/14 10:08:10;;;;;;;17.27;4.22;;;;;;;-146.64;61.58;36972.63;5088510;28;20096;-70
2022/05/14 10:11:22;;;;;;;18.58;4.18;;;;;;;-146.64;60.71;36821.25;5088886;28;20036;-70
2022/05/14 10:14:14;;;;;;;19.08;4.40;;;;;;;-146.64;58.50;37046.25;5072363;28;20059;-70
2022/05/14 10:17:01;;;;;;;17.85;3.78;;;;;;;-146.64;56.95;36833.53;5066643;28;20038;-69
2022/05/14 10:19:52;;;;;;;22.63;4.70;;;;;;;-146.64;57.25;36821.25;5086982;28;20040;-70
2022/05/14 10:28:43;;;;;;;13.35;4.55;;;;;;;-146.64;60.63;37271.25;5087283;28;20043;-70
2022/05/14 10:31:28;;;;;;;12.80;4.35;;;;;;;-146.64;63.34;37312.16;5086795;28;20035;-69
2022/05/14 10:33:56;;;;;;;21.90;5.53;;;;;;;-146.64;62.26;37050.34;5070640;28;20058;-69
2022/05/14 10:36:30;;;;;;;17.88;4.38;;;;;;;-146.64;60.31;37160.78;5069713;28;20027;-69
2022/05/14 10:39:01;;;;;;;16.13;4.47;;;;;;;-146.64;59.85;37185.34;5089090;28;20039;-70
2022/05/14 10:41:32;;;;;;;19.50;4.90;;;;;;;-146.64;56.58;36988.97;5069238;28;20359;-69
2022/05/14 10:44:00;;;;;;;23.55;4.72;;;;;;;-146.64;56.69;36935.81;5068054;28;20099;-69
2022/05/14 10:46:28;;;;;;;21.98;5.30;;;;;;;-146.64;55.18;36792.63;5070421;28;20116;-70
2022/05/14 10:49:20;;;;;;;13.43;3.83;;;;;;;-146.64;57.01;37054.44;5089537;28;20081;-68
2022/05/14 10:51:48;;;;;;;19.92;4.28;;;;;;;-146.64;58.62;37146.47;5049954;28;20115;-70
2022/05/14 10:54:20;;;;;;;17.38;4.57;;;;;;;-146.64;57.01;36678.09;5050681;28;20032;-70
2022/05/14 10:57:02;;;;;;;18.98;5.28;;;;;;;-146.64;55.33;36761.94;5053465;28;20502;-70
2022/05/14 10:59:36;;;;;;;16.52;4.57;;;;;;;-146.64;54.66;37089.22;5069425;28;20519;-70
2022/05/14 11:02:05;;;;;;;13.77;4.40;;;;;;;-146.64;56.96;37230.34;5070121;28;20027;-70
2022/05/14 11:04:51;;;;;;;20.67;4.20;;;;;;;-146.64;58.22;37236.47;5068406;28;20104;-70
2022/05/14 11:07:39;;;;;;;17.23;4.90;;;;;;;-146.64;58.71;36884.66;5088495;28;20032;-69
2022/05/14 11:10:28;;;;;;;15.23;4.35;;;;;;;-146.64;55.65;36960.34;5088287;28;20032;-70
2022/05/14 11:12:55;;;;;;;16.67;4.80;;;;;;;-146.64;57.02;36995.13;5085388;28;20028;-70
2022/05/14 11:15:24;;;;;;;19.05;4.60;;;;;;;-146.64;55.95;36907.16;5064456;28;20035;-70
2022/05/14 11:18:02;;;;;;;18.45;4.25;;;;;;;-146.64;54.42;36571.75;5061502;28;20081;-70
2022/05/14 11:20:27;;;;;;;21.15;4.45;;;;;;;-146.64;51.49;36716.94;5051787;28;20047;-70
2022/05/14 11:23:05;;;;;;;17.07;5.30;;;;;;;-146.64;52.30;36514.47;5065914;28;20036;-71
2022/05/14 11:25:31;;;;;;;20.75;4.70;;;;;;;-146.64;50.05;36479.72;5047953;28;20463;-70
2022/05/14 11:28:05;;;;;;;20.23;5.20;;;;;;;-146.64;51.19;36534.94;5084603;28;20039;-70